sensor_id;sensor_type;location;lat;lon;timestamp;P1;durP1;ratioP1;P2;durP2;ratioP2
12334;SDS011;6233;51.560;9.986;2023-06-22T00:01:53;12.17;;;11.00;;
12334;SDS011;6233;51.560;9.986;2023-06-22T00:04:55;12.43;;;11.07;;
12334;SDS011;6233;51.560;9.986;2023-06-22T00:07:57;11.23;;;10.23;;
12334;SDS011;6233;51.560;9.986;2023-06-22T00:10:59;11.20;;;10.20;;
12334;SDS011;6233;51.560;9.986;2023-06-22T00:14:00;11.80;;;10.80;;
12334;SDS011;6233;51.560;9.986;2023-06-22T00:17:02;10.77;;;9.87;;
12334;SDS011;6233;51.560;9.986;2023-06-22T00:20:04;11.30;;;10.30;;
12334;SDS011;6233;51.560;9.986;2023-06-22T00:23:07;10.57;;;9.67;;
12334;SDS011;6233;51.560;9.986;2023-06-22T00:26:09;10.93;;;9.83;;
12334;SDS011;6233;51.560;9.986;2023-06-22T00:29:12;11.33;;;10.33;;
12334;SDS011;6233;51.560;9.986;2023-06-22T00:32:14;11.70;;;10.70;;
12334;SDS011;6233;51.560;9.986;2023-06-22T00:35:16;11.93;;;10.77;;
12334;SDS011;6233;51.560;9.986;2023-06-22T00:38:17;11.90;;;10.83;;
12334;SDS011;6233;51.560;9.986;2023-06-22T00:41:19;12.10;;;10.90;;
12334;SDS011;6233;51.560;9.986;2023-06-22T00:44:21;12.20;;;11.10;;
12334;SDS011;6233;51.560;9.986;2023-06-22T00:47:23;10.53;;;9.63;;
12334;SDS011;6233;51.560;9.986;2023-06-22T00:50:26;11.90;;;10.73;;
12334;SDS011;6233;51.560;9.986;2023-06-22T00:53:30;11.13;;;10.23;;
12334;SDS011;6233;51.560;9.986;2023-06-22T00:56:36;11.03;;;9.93;;
12334;SDS011;6233;51.560;9.986;2023-06-22T00:59:38;10.80;;;9.90;;
12334;SDS011;6233;51.560;9.986;2023-06-22T01:02:40;10.07;;;9.17;;
12334;SDS011;6233;51.560;9.986;2023-06-22T01:05:42;10.77;;;9.77;;
12334;SDS011;6233;51.560;9.986;2023-06-22T01:08:49;10.93;;;9.93;;
12334;SDS011;6233;51.560;9.986;2023-06-22T01:12:00;10.37;;;9.47;;
12334;SDS011;6233;51.560;9.986;2023-06-22T01:15:08;10.70;;;9.70;;
12334;SDS011;6233;51.560;9.986;2023-06-22T01:18:15;11.50;;;10.50;;
12334;SDS011;6233;51.560;9.986;2023-06-22T01:21:20;10.40;;;9.50;;
12334;SDS011;6233;51.560;9.986;2023-06-22T01:24:24;11.23;;;10.23;;
12334;SDS011;6233;51.560;9.986;2023-06-22T01:31:02;11.87;;;10.77;;
12334;SDS011;6233;51.560;9.986;2023-06-22T01:34:07;13.07;;;11.87;;
12334;SDS011;6233;51.560;9.986;2023-06-22T01:37:10;12.67;;;11.47;;
12334;SDS011;6233;51.560;9.986;2023-06-22T01:40:13;13.30;;;12.07;;
12334;SDS011;6233;51.560;9.986;2023-06-22T01:43:16;14.77;;;13.47;;
12334;SDS011;6233;51.560;9.986;2023-06-22T01:46:18;15.40;;;13.90;;
12334;SDS011;6233;51.560;9.986;2023-06-22T01:49:20;15.33;;;13.83;;
12334;SDS011;6233;51.560;9.986;2023-06-22T01:52:23;15.87;;;14.13;;
12334;SDS011;6233;51.560;9.986;2023-06-22T01:55:24;15.70;;;14.13;;
12334;SDS011;6233;51.560;9.986;2023-06-22T01:58:27;15.50;;;14.00;;
12334;SDS011;6233;51.560;9.986;2023-06-22T02:01:44;15.10;;;13.70;;
12334;SDS011;6233;51.560;9.986;2023-06-22T02:04:57;15.10;;;13.60;;
12334;SDS011;6233;51.560;9.986;2023-06-22T02:08:07;14.93;;;13.43;;
12334;SDS011;6233;51.560;9.986;2023-06-22T02:11:11;15.50;;;13.97;;
12334;SDS011;6233;51.560;9.986;2023-06-22T02:14:14;14.23;;;12.83;;
12334;SDS011;6233;51.560;9.986;2023-06-22T02:17:19;13.90;;;12.50;;
12334;SDS011;6233;51.560;9.986;2023-06-22T02:20:23;14.47;;;12.97;;
12334;SDS011;6233;51.560;9.986;2023-06-22T02:23:25;13.40;;;12.20;;
12334;SDS011;6233;51.560;9.986;2023-06-22T02:26:27;13.27;;;11.93;;
12334;SDS011;6233;51.560;9.986;2023-06-22T02:29:29;12.07;;;10.87;;
12334;SDS011;6233;51.560;9.986;2023-06-22T02:32:31;12.67;;;11.27;;
12334;SDS011;6233;51.560;9.986;2023-06-22T02:35:35;11.97;;;10.87;;
12334;SDS011;6233;51.560;9.986;2023-06-22T02:38:37;12.40;;;11.20;;
12334;SDS011;6233;51.560;9.986;2023-06-22T02:41:40;13.23;;;12.03;;
12334;SDS011;6233;51.560;9.986;2023-06-22T02:44:42;13.20;;;11.93;;
12334;SDS011;6233;51.560;9.986;2023-06-22T02:47:43;13.77;;;12.37;;
12334;SDS011;6233;51.560;9.986;2023-06-22T02:50:45;14.30;;;13.00;;
12334;SDS011;6233;51.560;9.986;2023-06-22T02:53:47;14.47;;;12.97;;
12334;SDS011;6233;51.560;9.986;2023-06-22T02:56:49;16.63;;;14.47;;
12334;SDS011;6233;51.560;9.986;2023-06-22T02:59:52;14.50;;;13.20;;
12334;SDS011;6233;51.560;9.986;2023-06-22T03:02:53;13.00;;;11.80;;
12334;SDS011;6233;51.560;9.986;2023-06-22T03:05:55;11.60;;;10.43;;
12334;SDS011;6233;51.560;9.986;2023-06-22T03:09:03;11.50;;;10.50;;
12334;SDS011;6233;51.560;9.986;2023-06-22T03:12:06;12.03;;;10.77;;
12334;SDS011;6233;51.560;9.986;2023-06-22T03:15:09;11.53;;;10.53;;
12334;SDS011;6233;51.560;9.986;2023-06-22T03:18:12;12.20;;;10.83;;
12334;SDS011;6233;51.560;9.986;2023-06-22T03:21:14;14.90;;;13.47;;
12334;SDS011;6233;51.560;9.986;2023-06-22T03:24:16;14.33;;;12.93;;
12334;SDS011;6233;51.560;9.986;2023-06-22T03:27:18;14.77;;;13.03;;
12334;SDS011;6233;51.560;9.986;2023-06-22T03:30:20;15.97;;;14.27;;
12334;SDS011;6233;51.560;9.986;2023-06-22T03:33:21;14.63;;;13.33;;
12334;SDS011;6233;51.560;9.986;2023-06-22T03:36:23;15.93;;;14.20;;
12334;SDS011;6233;51.560;9.986;2023-06-22T03:39:25;17.90;;;16.30;;
12334;SDS011;6233;51.560;9.986;2023-06-22T03:42:27;15.63;;;13.50;;
12334;SDS011;6233;51.560;9.986;2023-06-22T03:45:29;14.80;;;13.50;;
12334;SDS011;6233;51.560;9.986;2023-06-22T03:48:30;19.00;;;17.20;;
12334;SDS011;6233;51.560;9.986;2023-06-22T03:51:32;14.73;;;13.27;;
12334;SDS011;6233;51.560;9.986;2023-06-22T03:54:34;14.07;;;12.77;;
12334;SDS011;6233;51.560;9.986;2023-06-22T03:57:36;13.73;;;12.43;;
12334;SDS011;6233;51.560;9.986;2023-06-22T04:00:37;15.07;;;13.67;;
12334;SDS011;6233;51.560;9.986;2023-06-22T04:03:40;15.60;;;14.20;;
12334;SDS011;6233;51.560;9.986;2023-06-22T04:06:42;14.33;;;12.87;;
12334;SDS011;6233;51.560;9.986;2023-06-22T04:09:44;14.73;;;13.30;;
12334;SDS011;6233;51.560;9.986;2023-06-22T04:12:46;15.03;;;13.63;;
12334;SDS011;6233;51.560;9.986;2023-06-22T04:15:48;19.93;;;17.87;;
12334;SDS011;6233;51.560;9.986;2023-06-22T04:18:50;15.73;;;14.13;;
12334;SDS011;6233;51.560;9.986;2023-06-22T04:21:52;15.10;;;13.50;;
12334;SDS011;6233;51.560;9.986;2023-06-22T04:24:53;15.77;;;14.27;;
12334;SDS011;6233;51.560;9.986;2023-06-22T04:27:55;15.07;;;13.77;;
12334;SDS011;6233;51.560;9.986;2023-06-22T04:30:57;17.40;;;15.60;;
12334;SDS011;6233;51.560;9.986;2023-06-22T04:34:04;16.53;;;14.83;;
12334;SDS011;6233;51.560;9.986;2023-06-22T04:37:07;17.47;;;15.77;;
12334;SDS011;6233;51.560;9.986;2023-06-22T04:40:09;15.57;;;14.10;;
12334;SDS011;6233;51.560;9.986;2023-06-22T04:43:11;15.57;;;14.07;;
12334;SDS011;6233;51.560;9.986;2023-06-22T04:46:13;19.43;;;17.63;;
12334;SDS011;6233;51.560;9.986;2023-06-22T04:49:14;18.13;;;16.33;;
12334;SDS011;6233;51.560;9.986;2023-06-22T04:52:16;16.40;;;14.80;;
12334;SDS011;6233;51.560;9.986;2023-06-22T04:55:19;15.57;;;14.17;;
12334;SDS011;6233;51.560;9.986;2023-06-22T04:58:21;15.03;;;13.53;;
12334;SDS011;6233;51.560;9.986;2023-06-22T05:01:23;14.67;;;13.20;;
12334;SDS011;6233;51.560;9.986;2023-06-22T05:04:26;14.57;;;13.17;;
12334;SDS011;6233;51.560;9.986;2023-06-22T05:07:29;14.83;;;13.33;;
12334;SDS011;6233;51.560;9.986;2023-06-22T05:10:31;16.07;;;14.47;;
12334;SDS011;6233;51.560;9.986;2023-06-22T05:13:33;15.70;;;14.17;;
12334;SDS011;6233;51.560;9.986;2023-06-22T05:16:34;14.77;;;13.27;;
12334;SDS011;6233;51.560;9.986;2023-06-22T05:19:37;21.17;;;19.17;;
12334;SDS011;6233;51.560;9.986;2023-06-22T05:22:39;15.93;;;14.43;;
12334;SDS011;6233;51.560;9.986;2023-06-22T05:25:42;13.43;;;12.17;;
12334;SDS011;6233;51.560;9.986;2023-06-22T05:28:44;13.47;;;12.07;;
12334;SDS011;6233;51.560;9.986;2023-06-22T05:31:49;15.37;;;12.93;;
12334;SDS011;6233;51.560;9.986;2023-06-22T05:34:50;14.63;;;13.23;;
12334;SDS011;6233;51.560;9.986;2023-06-22T05:37:52;15.23;;;13.63;;
12334;SDS011;6233;51.560;9.986;2023-06-22T05:40:54;15.30;;;12.90;;
12334;SDS011;6233;51.560;9.986;2023-06-22T05:43:56;14.50;;;12.87;;
12334;SDS011;6233;51.560;9.986;2023-06-22T05:46:57;17.00;;;15.33;;
12334;SDS011;6233;51.560;9.986;2023-06-22T05:49:59;13.53;;;12.13;;
12334;SDS011;6233;51.560;9.986;2023-06-22T05:53:01;12.23;;;11.10;;
12334;SDS011;6233;51.560;9.986;2023-06-22T05:56:03;13.60;;;12.20;;
12334;SDS011;6233;51.560;9.986;2023-06-22T05:59:05;14.53;;;13.07;;
12334;SDS011;6233;51.560;9.986;2023-06-22T06:02:07;13.97;;;12.67;;
12334;SDS011;6233;51.560;9.986;2023-06-22T06:05:10;13.43;;;12.13;;
12334;SDS011;6233;51.560;9.986;2023-06-22T06:08:15;13.53;;;12.23;;
12334;SDS011;6233;51.560;9.986;2023-06-22T06:11:16;12.90;;;11.30;;
12334;SDS011;6233;51.560;9.986;2023-06-22T06:14:18;12.67;;;11.57;;
12334;SDS011;6233;51.560;9.986;2023-06-22T06:17:21;12.00;;;10.93;;
12334;SDS011;6233;51.560;9.986;2023-06-22T06:20:23;14.30;;;12.77;;
12334;SDS011;6233;51.560;9.986;2023-06-22T06:23:26;14.83;;;13.53;;
12334;SDS011;6233;51.560;9.986;2023-06-22T06:26:27;11.90;;;10.80;;
12334;SDS011;6233;51.560;9.986;2023-06-22T06:29:34;11.07;;;10.17;;
12334;SDS011;6233;51.560;9.986;2023-06-22T06:32:35;10.77;;;9.77;;
12334;SDS011;6233;51.560;9.986;2023-06-22T06:35:37;10.50;;;9.50;;
12334;SDS011;6233;51.560;9.986;2023-06-22T06:38:39;9.73;;;8.87;;
12334;SDS011;6233;51.560;9.986;2023-06-22T06:41:41;10.03;;;9.13;;
12334;SDS011;6233;51.560;9.986;2023-06-22T06:44:43;10.50;;;9.60;;
12334;SDS011;6233;51.560;9.986;2023-06-22T06:47:46;9.73;;;8.83;;
12334;SDS011;6233;51.560;9.986;2023-06-22T06:50:48;9.67;;;8.83;;
12334;SDS011;6233;51.560;9.986;2023-06-22T06:53:51;9.80;;;8.90;;
12334;SDS011;6233;51.560;9.986;2023-06-22T06:56:53;9.80;;;8.80;;
12334;SDS011;6233;51.560;9.986;2023-06-22T06:59:55;10.17;;;9.23;;
12334;SDS011;6233;51.560;9.986;2023-06-22T07:02:57;9.13;;;8.23;;
12334;SDS011;6233;51.560;9.986;2023-06-22T07:05:59;10.03;;;9.20;;
12334;SDS011;6233;51.560;9.986;2023-06-22T07:09:01;9.93;;;8.90;;
12334;SDS011;6233;51.560;9.986;2023-06-22T07:12:04;9.47;;;8.70;;
12334;SDS011;6233;51.560;9.986;2023-06-22T07:15:08;10.33;;;9.33;;
12334;SDS011;6233;51.560;9.986;2023-06-22T07:18:10;10.03;;;9.20;;
12334;SDS011;6233;51.560;9.986;2023-06-22T07:21:12;9.97;;;9.17;;
12334;SDS011;6233;51.560;9.986;2023-06-22T07:24:14;10.17;;;9.27;;
12334;SDS011;6233;51.560;9.986;2023-06-22T07:27:16;9.63;;;8.63;;
12334;SDS011;6233;51.560;9.986;2023-06-22T07:30:20;10.33;;;9.43;;
12334;SDS011;6233;51.560;9.986;2023-06-22T07:33:22;9.83;;;9.03;;
12334;SDS011;6233;51.560;9.986;2023-06-22T07:36:24;10.10;;;9.20;;
12334;SDS011;6233;51.560;9.986;2023-06-22T07:39:26;11.03;;;9.90;;
12334;SDS011;6233;51.560;9.986;2023-06-22T07:42:28;10.53;;;9.53;;
12334;SDS011;6233;51.560;9.986;2023-06-22T07:45:34;9.53;;;8.70;;
12334;SDS011;6233;51.560;9.986;2023-06-22T07:48:37;9.53;;;8.70;;
12334;SDS011;6233;51.560;9.986;2023-06-22T07:51:39;10.50;;;9.50;;
12334;SDS011;6233;51.560;9.986;2023-06-22T07:54:40;10.47;;;9.47;;
12334;SDS011;6233;51.560;9.986;2023-06-22T07:57:42;9.63;;;8.50;;
12334;SDS011;6233;51.560;9.986;2023-06-22T08:00:44;8.97;;;8.20;;
12334;SDS011;6233;51.560;9.986;2023-06-22T08:03:49;10.33;;;9.43;;
12334;SDS011;6233;51.560;9.986;2023-06-22T08:06:51;8.90;;;8.20;;
12334;SDS011;6233;51.560;9.986;2023-06-22T08:09:53;9.30;;;8.50;;
12334;SDS011;6233;51.560;9.986;2023-06-22T08:12:54;10.17;;;9.30;;
12334;SDS011;6233;51.560;9.986;2023-06-22T08:15:56;10.00;;;9.00;;
12334;SDS011;6233;51.560;9.986;2023-06-22T08:18:58;10.43;;;8.63;;
12334;SDS011;6233;51.560;9.986;2023-06-22T08:22:00;10.23;;;9.33;;
12334;SDS011;6233;51.560;9.986;2023-06-22T08:25:02;9.90;;;8.90;;
12334;SDS011;6233;51.560;9.986;2023-06-22T08:28:05;10.47;;;9.47;;
12334;SDS011;6233;51.560;9.986;2023-06-22T08:31:07;9.30;;;8.43;;
12334;SDS011;6233;51.560;9.986;2023-06-22T08:34:09;10.27;;;9.37;;
12334;SDS011;6233;51.560;9.986;2023-06-22T08:37:12;9.43;;;8.50;;
12334;SDS011;6233;51.560;9.986;2023-06-22T08:40:14;10.27;;;9.30;;
12334;SDS011;6233;51.560;9.986;2023-06-22T08:43:16;10.40;;;9.33;;
12334;SDS011;6233;51.560;9.986;2023-06-22T08:46:18;10.03;;;9.23;;
12334;SDS011;6233;51.560;9.986;2023-06-22T08:49:24;10.57;;;9.57;;
12334;SDS011;6233;51.560;9.986;2023-06-22T08:52:25;9.80;;;9.00;;
12334;SDS011;6233;51.560;9.986;2023-06-22T08:55:27;9.70;;;8.90;;
12334;SDS011;6233;51.560;9.986;2023-06-22T08:58:30;11.13;;;10.13;;
12334;SDS011;6233;51.560;9.986;2023-06-22T09:01:31;10.97;;;10.03;;
12334;SDS011;6233;51.560;9.986;2023-06-22T09:04:33;11.07;;;10.17;;
12334;SDS011;6233;51.560;9.986;2023-06-22T09:07:36;10.07;;;9.07;;
12334;SDS011;6233;51.560;9.986;2023-06-22T09:10:38;11.20;;;10.20;;
12334;SDS011;6233;51.560;9.986;2023-06-22T09:13:40;10.70;;;9.80;;
12334;SDS011;6233;51.560;9.986;2023-06-22T09:16:41;10.60;;;9.80;;
12334;SDS011;6233;51.560;9.986;2023-06-22T09:19:43;10.70;;;9.80;;
12334;SDS011;6233;51.560;9.986;2023-06-22T09:22:45;10.87;;;9.97;;
12334;SDS011;6233;51.560;9.986;2023-06-22T09:25:47;9.77;;;8.98;;
12334;SDS011;6233;51.560;9.986;2023-06-22T09:28:49;9.18;;;8.38;;
12334;SDS011;6233;51.560;9.986;2023-06-22T09:31:51;10.13;;;9.32;;
12334;SDS011;6233;51.560;9.986;2023-06-22T09:34:54;9.48;;;8.65;;
12334;SDS011;6233;51.560;9.986;2023-06-22T09:37:56;9.77;;;8.88;;
12334;SDS011;6233;51.560;9.986;2023-06-22T09:40:58;9.98;;;8.98;;
12334;SDS011;6233;51.560;9.986;2023-06-22T09:44:00;10.55;;;9.55;;
12334;SDS011;6233;51.560;9.986;2023-06-22T09:47:02;9.75;;;8.93;;
12334;SDS011;6233;51.560;9.986;2023-06-22T09:50:04;9.60;;;8.52;;
12334;SDS011;6233;51.560;9.986;2023-06-22T09:53:06;10.23;;;8.98;;
12334;SDS011;6233;51.560;9.986;2023-06-22T09:56:09;9.32;;;8.50;;
12334;SDS011;6233;51.560;9.986;2023-06-22T09:59:15;9.18;;;8.35;;
12334;SDS011;6233;51.560;9.986;2023-06-22T10:02:19;10.13;;;9.23;;
12334;SDS011;6233;51.560;9.986;2023-06-22T10:05:21;10.15;;;9.13;;
12334;SDS011;6233;51.560;9.986;2023-06-22T10:08:24;9.40;;;8.60;;
12334;SDS011;6233;51.560;9.986;2023-06-22T10:11:25;9.30;;;8.30;;
12334;SDS011;6233;51.560;9.986;2023-06-22T10:14:31;10.05;;;9.05;;
12334;SDS011;6233;51.560;9.986;2023-06-22T10:17:33;10.27;;;9.38;;
12334;SDS011;6233;51.560;9.986;2023-06-22T10:20:35;9.35;;;8.55;;
12334;SDS011;6233;51.560;9.986;2023-06-22T10:23:37;8.88;;;8.18;;
12334;SDS011;6233;51.560;9.986;2023-06-22T10:26:39;9.98;;;8.75;;
12334;SDS011;6233;51.560;9.986;2023-06-22T10:29:41;10.40;;;9.30;;
12334;SDS011;6233;51.560;9.986;2023-06-22T10:32:42;9.10;;;8.30;;
12334;SDS011;6233;51.560;9.986;2023-06-22T10:35:45;9.65;;;8.77;;
12334;SDS011;6233;51.560;9.986;2023-06-22T10:38:47;9.30;;;8.40;;
12334;SDS011;6233;51.560;9.986;2023-06-22T10:41:49;9.35;;;8.48;;
12334;SDS011;6233;51.560;9.986;2023-06-22T10:44:50;10.13;;;9.30;;
12334;SDS011;6233;51.560;9.986;2023-06-22T10:47:52;9.03;;;8.23;;
12334;SDS011;6233;51.560;9.986;2023-06-22T10:50:54;9.70;;;8.90;;
12334;SDS011;6233;51.560;9.986;2023-06-22T10:53:56;9.10;;;8.30;;
12334;SDS011;6233;51.560;9.986;2023-06-22T10:56:58;10.23;;;9.20;;
12334;SDS011;6233;51.560;9.986;2023-06-22T11:00:00;9.90;;;9.07;;
12334;SDS011;6233;51.560;9.986;2023-06-22T11:03:01;9.17;;;8.37;;
12334;SDS011;6233;51.560;9.986;2023-06-22T11:06:03;9.30;;;8.40;;
12334;SDS011;6233;51.560;9.986;2023-06-22T11:09:05;10.27;;;8.80;;
12334;SDS011;6233;51.560;9.986;2023-06-22T11:12:26;9.70;;;8.87;;
12334;SDS011;6233;51.560;9.986;2023-06-22T11:15:28;9.50;;;8.70;;
12334;SDS011;6233;51.560;9.986;2023-06-22T11:18:31;10.07;;;9.03;;
12334;SDS011;6233;51.560;9.986;2023-06-22T11:21:34;9.80;;;8.90;;
12334;SDS011;6233;51.560;9.986;2023-06-22T11:24:36;9.33;;;8.43;;
12334;SDS011;6233;51.560;9.986;2023-06-22T11:27:38;9.77;;;8.77;;
12334;SDS011;6233;51.560;9.986;2023-06-22T11:30:40;9.97;;;8.97;;
12334;SDS011;6233;51.560;9.986;2023-06-22T11:33:42;9.70;;;8.80;;
12334;SDS011;6233;51.560;9.986;2023-06-22T11:36:46;9.97;;;9.00;;
12334;SDS011;6233;51.560;9.986;2023-06-22T11:39:49;9.83;;;8.90;;
12334;SDS011;6233;51.560;9.986;2023-06-22T11:43:06;9.03;;;8.23;;
12334;SDS011;6233;51.560;9.986;2023-06-22T11:46:08;9.30;;;8.50;;
12334;SDS011;6233;51.560;9.986;2023-06-22T11:49:09;9.50;;;8.70;;
12334;SDS011;6233;51.560;9.986;2023-06-22T11:52:11;9.73;;;8.77;;
12334;SDS011;6233;51.560;9.986;2023-06-22T11:55:13;8.87;;;8.07;;
12334;SDS011;6233;51.560;9.986;2023-06-22T11:58:15;9.27;;;8.53;;
12334;SDS011;6233;51.560;9.986;2023-06-22T12:01:17;9.47;;;8.30;;
12334;SDS011;6233;51.560;9.986;2023-06-22T12:04:18;8.53;;;7.83;;
12334;SDS011;6233;51.560;9.986;2023-06-22T12:07:20;9.00;;;8.10;;
12334;SDS011;6233;51.560;9.986;2023-06-22T12:10:22;9.53;;;8.40;;
12334;SDS011;6233;51.560;9.986;2023-06-22T12:13:24;8.83;;;7.93;;
12334;SDS011;6233;51.560;9.986;2023-06-22T12:16:26;9.10;;;8.20;;
12334;SDS011;6233;51.560;9.986;2023-06-22T12:19:28;8.63;;;7.83;;
12334;SDS011;6233;51.560;9.986;2023-06-22T12:26:10;8.83;;;7.97;;
12334;SDS011;6233;51.560;9.986;2023-06-22T12:29:11;9.47;;;8.67;;
12334;SDS011;6233;51.560;9.986;2023-06-22T12:32:13;10.60;;;8.30;;
12334;SDS011;6233;51.560;9.986;2023-06-22T12:35:15;9.00;;;8.10;;
12334;SDS011;6233;51.560;9.986;2023-06-22T12:38:17;8.83;;;8.07;;
12334;SDS011;6233;51.560;9.986;2023-06-22T12:41:19;11.97;;;8.30;;
12334;SDS011;6233;51.560;9.986;2023-06-22T12:44:23;8.83;;;8.03;;
12334;SDS011;6233;51.560;9.986;2023-06-22T12:47:25;8.57;;;7.87;;
12334;SDS011;6233;51.560;9.986;2023-06-22T12:50:26;9.23;;;8.33;;
12334;SDS011;6233;51.560;9.986;2023-06-22T12:53:29;8.97;;;8.20;;
12334;SDS011;6233;51.560;9.986;2023-06-22T12:56:31;8.63;;;7.93;;
12334;SDS011;6233;51.560;9.986;2023-06-22T12:59:32;8.50;;;7.70;;
12334;SDS011;6233;51.560;9.986;2023-06-22T13:02:34;9.00;;;8.10;;
12334;SDS011;6233;51.560;9.986;2023-06-22T13:05:36;9.80;;;9.00;;
12334;SDS011;6233;51.560;9.986;2023-06-22T13:08:39;8.97;;;8.07;;
12334;SDS011;6233;51.560;9.986;2023-06-22T13:11:44;9.17;;;8.37;;
12334;SDS011;6233;51.560;9.986;2023-06-22T13:14:46;9.07;;;8.33;;
12334;SDS011;6233;51.560;9.986;2023-06-22T13:17:49;9.63;;;8.77;;
12334;SDS011;6233;51.560;9.986;2023-06-22T13:20:51;10.20;;;9.30;;
12334;SDS011;6233;51.560;9.986;2023-06-22T13:23:55;10.23;;;9.33;;
12334;SDS011;6233;51.560;9.986;2023-06-22T13:26:57;10.20;;;9.40;;
12334;SDS011;6233;51.560;9.986;2023-06-22T13:29:59;9.83;;;8.97;;
12334;SDS011;6233;51.560;9.986;2023-06-22T13:33:00;10.97;;;9.77;;
12334;SDS011;6233;51.560;9.986;2023-06-22T13:36:02;10.60;;;9.73;;
12334;SDS011;6233;51.560;9.986;2023-06-22T13:39:04;10.87;;;9.87;;
12334;SDS011;6233;51.560;9.986;2023-06-22T13:42:06;10.13;;;9.23;;
12334;SDS011;6233;51.560;9.986;2023-06-22T13:45:08;10.37;;;9.33;;
12334;SDS011;6233;51.560;9.986;2023-06-22T13:48:10;11.90;;;10.03;;
12334;SDS011;6233;51.560;9.986;2023-06-22T13:51:12;10.67;;;9.60;;
12334;SDS011;6233;51.560;9.986;2023-06-22T13:54:14;11.73;;;10.73;;
12334;SDS011;6233;51.560;9.986;2023-06-22T13:57:30;10.83;;;9.90;;
12334;SDS011;6233;51.560;9.986;2023-06-22T14:00:32;10.83;;;9.83;;
12334;SDS011;6233;51.560;9.986;2023-06-22T14:03:34;10.97;;;10.00;;
12334;SDS011;6233;51.560;9.986;2023-06-22T14:06:36;10.67;;;9.67;;
12334;SDS011;6233;51.560;9.986;2023-06-22T14:09:39;9.90;;;9.00;;
12334;SDS011;6233;51.560;9.986;2023-06-22T14:12:40;9.97;;;9.07;;
12334;SDS011;6233;51.560;9.986;2023-06-22T14:15:42;10.93;;;9.60;;
12334;SDS011;6233;51.560;9.986;2023-06-22T14:18:44;10.60;;;9.70;;
12334;SDS011;6233;51.560;9.986;2023-06-22T14:26:12;11.20;;;10.10;;
12334;SDS011;6233;51.560;9.986;2023-06-22T14:51:13;10.23;;;9.23;;
12334;SDS011;6233;51.560;9.986;2023-06-22T14:54:17;10.47;;;9.50;;
12334;SDS011;6233;51.560;9.986;2023-06-22T14:57:19;9.47;;;8.67;;
12334;SDS011;6233;51.560;9.986;2023-06-22T15:00:21;9.20;;;8.47;;
12334;SDS011;6233;51.560;9.986;2023-06-22T15:03:22;8.87;;;8.07;;
12334;SDS011;6233;51.560;9.986;2023-06-22T15:06:28;10.57;;;9.30;;
12334;SDS011;6233;51.560;9.986;2023-06-22T15:09:30;10.23;;;8.70;;
12334;SDS011;6233;51.560;9.986;2023-06-22T15:12:32;8.83;;;8.03;;
12334;SDS011;6233;51.560;9.986;2023-06-22T15:15:34;9.47;;;8.57;;
12334;SDS011;6233;51.560;9.986;2023-06-22T15:18:36;10.23;;;9.20;;
12334;SDS011;6233;51.560;9.986;2023-06-22T15:21:38;7.97;;;6.43;;
12334;SDS011;6233;51.560;9.986;2023-06-22T15:24:40;9.23;;;3.97;;
12334;SDS011;6233;51.560;9.986;2023-06-22T15:27:41;8.83;;;4.17;;
12334;SDS011;6233;51.560;9.986;2023-06-22T15:30:43;13.23;;;4.63;;
12334;SDS011;6233;51.560;9.986;2023-06-22T15:33:49;8.77;;;3.13;;
12334;SDS011;6233;51.560;9.986;2023-06-22T15:36:51;6.77;;;2.60;;
12334;SDS011;6233;51.560;9.986;2023-06-22T15:39:53;4.90;;;3.03;;
12334;SDS011;6233;51.560;9.986;2023-06-22T15:42:57;4.10;;;3.00;;
12334;SDS011;6233;51.560;9.986;2023-06-22T15:45:58;5.37;;;2.53;;
12334;SDS011;6233;51.560;9.986;2023-06-22T15:49:00;7.33;;;5.20;;
12334;SDS011;6233;51.560;9.986;2023-06-22T15:52:02;8.57;;;4.77;;
12334;SDS011;6233;51.560;9.986;2023-06-22T15:55:04;16.40;;;8.23;;
12334;SDS011;6233;51.560;9.986;2023-06-22T15:58:06;9.47;;;5.73;;
12334;SDS011;6233;51.560;9.986;2023-06-22T16:01:10;7.23;;;4.07;;
12334;SDS011;6233;51.560;9.986;2023-06-22T16:04:11;6.67;;;3.23;;
12334;SDS011;6233;51.560;9.986;2023-06-22T16:07:13;4.63;;;3.17;;
12334;SDS011;6233;51.560;9.986;2023-06-22T16:10:15;12.27;;;5.53;;
12334;SDS011;6233;51.560;9.986;2023-06-22T16:13:18;9.60;;;5.47;;
12334;SDS011;6233;51.560;9.986;2023-06-22T16:16:20;2.93;;;2.33;;
12334;SDS011;6233;51.560;9.986;2023-06-22T16:19:22;6.23;;;2.87;;
12334;SDS011;6233;51.560;9.986;2023-06-22T16:22:24;5.70;;;3.00;;
12334;SDS011;6233;51.560;9.986;2023-06-22T16:25:26;4.27;;;3.10;;
12334;SDS011;6233;51.560;9.986;2023-06-22T16:28:28;2.90;;;2.43;;
12334;SDS011;6233;51.560;9.986;2023-06-22T16:31:29;3.97;;;2.93;;
12334;SDS011;6233;51.560;9.986;2023-06-22T16:34:31;3.77;;;2.50;;
12334;SDS011;6233;51.560;9.986;2023-06-22T16:37:33;3.90;;;2.60;;
12334;SDS011;6233;51.560;9.986;2023-06-22T16:40:34;3.33;;;2.33;;
12334;SDS011;6233;51.560;9.986;2023-06-22T16:43:37;2.53;;;2.33;;
12334;SDS011;6233;51.560;9.986;2023-06-22T16:46:41;3.47;;;2.30;;
12334;SDS011;6233;51.560;9.986;2023-06-22T16:49:45;2.57;;;2.30;;
12334;SDS011;6233;51.560;9.986;2023-06-22T16:52:47;6.87;;;5.90;;
12334;SDS011;6233;51.560;9.986;2023-06-22T16:55:49;5.37;;;4.87;;
12334;SDS011;6233;51.560;9.986;2023-06-22T16:58:56;5.30;;;4.23;;
12334;SDS011;6233;51.560;9.986;2023-06-22T17:02:02;4.37;;;3.03;;
12334;SDS011;6233;51.560;9.986;2023-06-22T17:05:04;4.90;;;3.53;;
12334;SDS011;6233;51.560;9.986;2023-06-22T17:08:07;4.20;;;3.37;;
12334;SDS011;6233;51.560;9.986;2023-06-22T17:11:14;3.90;;;3.07;;
12334;SDS011;6233;51.560;9.986;2023-06-22T17:14:17;4.67;;;3.30;;
12334;SDS011;6233;51.560;9.986;2023-06-22T17:17:18;5.47;;;3.40;;
12334;SDS011;6233;51.560;9.986;2023-06-22T17:20:23;5.93;;;3.27;;
12334;SDS011;6233;51.560;9.986;2023-06-22T17:23:26;3.83;;;3.30;;
12334;SDS011;6233;51.560;9.986;2023-06-22T17:26:30;5.17;;;3.40;;
12334;SDS011;6233;51.560;9.986;2023-06-22T17:29:32;5.63;;;5.03;;
12334;SDS011;6233;51.560;9.986;2023-06-22T17:32:36;9.97;;;5.67;;
12334;SDS011;6233;51.560;9.986;2023-06-22T17:35:50;6.13;;;5.27;;
12334;SDS011;6233;51.560;9.986;2023-06-22T17:38:58;4.60;;;4.00;;
12334;SDS011;6233;51.560;9.986;2023-06-22T17:42:00;6.67;;;4.20;;
12334;SDS011;6233;51.560;9.986;2023-06-22T17:45:02;6.67;;;4.20;;
12334;SDS011;6233;51.560;9.986;2023-06-22T17:48:04;6.00;;;4.57;;
12334;SDS011;6233;51.560;9.986;2023-06-22T17:51:09;4.97;;;4.40;;
12334;SDS011;6233;51.560;9.986;2023-06-22T17:54:13;5.83;;;3.93;;
12334;SDS011;6233;51.560;9.986;2023-06-22T17:57:18;7.90;;;6.10;;
12334;SDS011;6233;51.560;9.986;2023-06-22T18:00:20;5.57;;;4.40;;
12334;SDS011;6233;51.560;9.986;2023-06-22T18:03:25;5.73;;;4.90;;
12334;SDS011;6233;51.560;9.986;2023-06-22T18:06:27;6.90;;;5.43;;
12334;SDS011;6233;51.560;9.986;2023-06-22T18:09:31;7.97;;;5.10;;
12334;SDS011;6233;51.560;9.986;2023-06-22T18:12:33;7.70;;;5.33;;
12334;SDS011;6233;51.560;9.986;2023-06-22T18:15:36;5.63;;;5.13;;
12334;SDS011;6233;51.560;9.986;2023-06-22T18:18:38;6.53;;;5.00;;
12334;SDS011;6233;51.560;9.986;2023-06-22T18:21:41;5.80;;;4.63;;
12334;SDS011;6233;51.560;9.986;2023-06-22T18:24:47;6.50;;;4.00;;
12334;SDS011;6233;51.560;9.986;2023-06-22T18:27:50;4.33;;;3.33;;
12334;SDS011;6233;51.560;9.986;2023-06-22T18:30:53;5.30;;;4.20;;
12334;SDS011;6233;51.560;9.986;2023-06-22T18:33:58;5.43;;;4.90;;
12334;SDS011;6233;51.560;9.986;2023-06-22T18:37:00;4.00;;;2.87;;
12334;SDS011;6233;51.560;9.986;2023-06-22T18:40:05;3.40;;;2.50;;
12334;SDS011;6233;51.560;9.986;2023-06-22T18:43:09;4.83;;;2.10;;
12334;SDS011;6233;51.560;9.986;2023-06-22T18:46:32;1.80;;;1.33;;
12334;SDS011;6233;51.560;9.986;2023-06-22T18:52:41;3.37;;;3.00;;
12334;SDS011;6233;51.560;9.986;2023-06-22T18:55:49;5.80;;;4.70;;
12334;SDS011;6233;51.560;9.986;2023-06-22T18:58:55;2.17;;;1.57;;